Terminal Aerodrome Forecast
Issued by NWS

Home | Current Version | Previous Version | Text Only | Print | Product List | Glossary On
Versions: 1 2 3 4 5 6 7 8 9 10 11 12 13 14 15 16 17 18
000
FTUS41 KPHI 161300 AAA
TAFMIV
TAF AMD
KMIV 161317Z 1613/1712 28006KT P6SM BKN015
     FM161500 33009KT P6SM SCT040
      TEMPO 1615/1619 BKN040
     FM162300 35002KT P6SM SKC=

USA.gov is the U.S. government's official web portal to all federal, state and local government web resources and services.